Time;durP1;ratioP1;P1;durP2;ratioP2;P2;SDS_P1;SDS_P2;PMS_P1;PMS_P2;Temp;Humidity;BMP_temperature;BMP_pressure;BME280_temperature;BME280_humidity;BME280_pressure;Samples;Min_cycle;Max_cycle;Signal;HPM_P1;HPM_P2
2022/05/16 00:00:58;;;;;;;9.60;4.20;;;;;;;13.83;71.18;99250.78;5004954;28;20043;-58
2022/05/16 00:03:24;;;;;;;8.15;4.13;;;;;;;13.81;71.74;99234.88;5005819;28;20275;-58
2022/05/16 00:05:50;;;;;;;9.05;4.47;;;;;;;13.72;71.69;99238.34;4975480;28;20030;-57
2022/05/16 00:08:16;;;;;;;7.60;3.80;;;;;;;13.70;71.41;99233.22;4980970;28;20112;-57
2022/05/16 00:10:41;;;;;;;7.90;3.70;;;;;;;13.70;71.62;99232.41;4973235;28;20034;-57
2022/05/16 00:13:07;;;;;;;6.20;3.92;;;;;;;13.71;71.44;99234.03;5004916;28;20075;-58
2022/05/16 00:15:34;;;;;;;8.50;4.03;;;;;;;13.63;72.07;99237.22;5005357;28;20145;-58
2022/05/16 00:18:00;;;;;;;8.20;3.80;;;;;;;13.68;72.34;99238.06;5005361;28;20076;-56
2022/05/16 00:20:26;;;;;;;8.50;4.13;;;;;;;13.53;70.95;99230.72;4986833;28;20448;-57
2022/05/16 00:22:51;;;;;;;7.88;4.03;;;;;;;13.44;71.79;99226.91;5004708;28;20030;-58
2022/05/16 00:25:17;;;;;;;6.70;3.78;;;;;;;13.68;71.38;99239.94;5005202;28;20022;-57
2022/05/16 00:27:43;;;;;;;10.80;3.67;;;;;;;13.45;71.28;99236.59;5006996;28;20030;-58
2022/05/16 00:30:11;;;;;;;9.13;4.15;;;;;;;13.61;70.20;99228.63;4988340;28;20029;-57
2022/05/16 00:32:36;;;;;;;7.82;3.67;;;;;;;13.61;69.80;99228.63;5002054;28;20030;-57
2022/05/16 00:35:03;;;;;;;9.57;4.00;;;;;;;13.55;70.86;99231.28;5004865;28;20104;-57
2022/05/16 00:37:29;;;;;;;9.55;4.10;;;;;;;13.59;71.84;99220.78;4986459;28;20029;-57
2022/05/16 00:39:54;;;;;;;6.68;3.83;;;;;;;13.64;70.89;99225.38;5005389;28;20522;-57
2022/05/16 00:42:20;;;;;;;7.65;3.72;;;;;;;13.44;71.63;99218.81;4987180;28;20018;-58
2022/05/16 00:44:46;;;;;;;8.63;3.90;;;;;;;13.42;71.87;99220.97;4987736;28;20056;-57
2022/05/16 00:47:11;;;;;;;10.25;3.95;;;;;;;13.50;71.10;99217.75;5005533;28;20367;-57
2022/05/16 00:49:45;;;;;;;6.95;3.70;;;;;;;13.52;71.16;99214.81;5005887;28;20033;-57
2022/05/16 00:52:13;;;;;;;12.20;3.90;;;;;;;13.55;70.71;99215.13;4988757;28;20034;-58
2022/05/16 00:54:43;;;;;;;10.73;4.60;;;;;;;13.77;69.57;99220.31;5005463;28;20033;-57
2022/05/16 00:57:12;;;;;;;8.88;4.03;;;;;;;13.82;70.47;99220.34;4986037;28;20496;-57
2022/05/16 01:00:06;;;;;;;8.70;4.00;;;;;;;13.65;70.49;99218.91;4984564;28;20061;-57
2022/05/16 01:05:17;;;;;;;11.90;4.28;;;;;;;13.52;70.86;99215.63;5000340;28;20041;-58
2022/05/16 01:07:43;;;;;;;6.07;3.65;;;;;;;13.45;70.64;99225.81;5005157;28;20026;-57
2022/05/16 01:10:12;;;;;;;8.68;4.70;;;;;;;13.39;72.13;99221.50;5005543;28;20076;-57
2022/05/16 01:12:40;;;;;;;9.25;4.38;;;;;;;13.56;71.45;99224.81;5003785;28;20029;-57
2022/05/16 01:15:08;;;;;;;11.60;4.50;;;;;;;13.67;70.15;99222.16;5002775;28;20367;-57
2022/05/16 01:17:33;;;;;;;8.23;3.80;;;;;;;13.66;71.13;99215.16;5004541;28;20108;-57
2022/05/16 01:19:59;;;;;;;11.93;4.65;;;;;;;13.63;71.08;99216.50;5003636;28;20036;-57
2022/05/16 01:22:30;;;;;;;12.05;4.75;;;;;;;13.51;71.71;99218.59;5005724;28;20540;-57
2022/05/16 01:24:58;;;;;;;8.43;4.15;;;;;;;13.49;71.86;99213.47;5004408;28;20022;-57
2022/05/16 01:27:23;;;;;;;8.50;4.07;;;;;;;13.30;72.77;99212.28;4978593;28;20048;-57
2022/05/16 01:29:49;;;;;;;7.60;4.25;;;;;;;13.16;73.47;99206.53;5004620;28;20022;-57
2022/05/16 01:32:15;;;;;;;8.95;4.43;;;;;;;13.11;73.67;99215.38;5003081;28;20487;-57
2022/05/16 01:34:40;;;;;;;7.75;4.28;;;;;;;13.13;73.62;99210.56;4986238;28;20092;-57
2022/05/16 01:37:07;;;;;;;6.50;4.00;;;;;;;13.16;73.79;99201.94;5005016;28;20109;-58
2022/05/16 01:39:32;;;;;;;8.88;4.15;;;;;;;13.04;73.95;99193.25;5004136;28;20380;-58
2022/05/16 01:41:58;;;;;;;10.38;4.68;;;;;;;12.78;75.97;99204.91;5004631;28;20030;-57
2022/05/16 01:44:24;;;;;;;9.82;4.50;;;;;;;12.80;75.42;99205.47;5005676;28;20065;-57
2022/05/16 01:46:50;;;;;;;8.25;4.22;;;;;;;12.89;75.46;99201.22;4988980;28;20396;-57
2022/05/16 01:49:15;;;;;;;8.02;3.92;;;;;;;12.92;76.19;99200.72;4984322;28;20046;-57
2022/05/16 01:51:41;;;;;;;7.10;4.10;;;;;;;12.94;75.87;99203.94;5005357;28;20050;-57
2022/05/16 01:54:07;;;;;;;9.60;4.55;;;;;;;13.00;75.08;99213.66;5006008;28;20026;-57
2022/05/16 01:56:33;;;;;;;11.40;4.32;;;;;;;13.03;73.81;99206.97;4991439;28;20041;-57
2022/05/16 01:59:00;;;;;;;10.70;4.57;;;;;;;13.08;73.73;99205.13;4985760;28;20037;-57
2022/05/16 02:01:26;;;;;;;7.03;4.03;;;;;;;13.02;74.04;99200.78;5009525;28;20420;-57
2022/05/16 02:03:51;;;;;;;10.02;4.28;;;;;;;13.00;73.37;99197.53;5008512;28;20032;-57
2022/05/16 02:06:17;;;;;;;6.47;4.00;;;;;;;13.13;72.64;99197.09;5008619;28;20022;-56
2022/05/16 02:08:43;;;;;;;8.65;3.90;;;;;;;13.33;72.15;99201.81;5007264;28;20030;-57
2022/05/16 02:11:09;;;;;;;11.07;3.95;;;;;;;13.26;72.03;99200.41;5008504;28;20551;-57
2022/05/16 02:13:38;;;;;;;5.97;4.10;;;;;;;13.25;72.13;99204.16;4991624;28;20121;-57
2022/05/16 02:16:04;;;;;;;8.27;4.20;;;;;;;13.14;73.12;99206.78;5008344;28;20037;-57
2022/05/16 02:18:30;;;;;;;11.43;4.03;;;;;;;13.11;72.97;99203.81;5008512;28;20030;-57
2022/05/16 02:24:38;;;;;;;9.43;4.45;;;;;;;12.86;75.07;99207.94;5006474;28;20103;-57
2022/05/16 02:26:25;;;;;;;7.75;4.15;;;;;;;13.13;72.88;99212.44;5008218;28;20669;-57
2022/05/16 02:28:51;;;;;;;9.73;4.07;;;;;;;13.10;72.51;99213.75;5007299;28;20038;-57
2022/05/16 02:31:19;;;;;;;11.07;4.35;;;;;;;13.11;72.52;99211.88;4990157;28;20396;-57
2022/05/16 02:33:45;;;;;;;6.35;3.80;;;;;;;13.13;72.32;99213.25;5007784;28;20129;-57
2022/05/16 02:36:11;;;;;;;8.15;4.50;;;;;;;12.91;73.38;99204.47;5008266;28;20046;-57
2022/05/16 02:38:37;;;;;;;11.85;4.85;;;;;;;12.76;75.45;99217.81;5007215;28;20026;-57
2022/05/16 02:41:02;;;;;;;9.27;4.13;;;;;;;12.67;75.85;99202.13;5008026;28;20539;-57
2022/05/16 02:43:28;;;;;;;7.03;4.25;;;;;;;12.86;73.62;99205.25;5008469;28;20164;-57
2022/05/16 02:45:53;;;;;;;8.20;3.85;;;;;;;13.21;71.88;99211.13;5006417;28;20132;-57
2022/05/16 02:48:19;;;;;;;7.22;4.35;;;;;;;13.24;71.88;99200.66;4988781;28;20666;-57
2022/05/16 02:50:44;;;;;;;6.22;3.75;;;;;;;13.22;71.94;99192.00;5006382;28;20472;-57
2022/05/16 02:53:10;;;;;;;9.35;4.22;;;;;;;13.32;71.88;99184.03;5007160;28;20546;-58
2022/05/16 02:55:36;;;;;;;8.35;4.65;;;;;;;13.18;73.03;99193.63;4973130;28;20057;-56
2022/05/16 02:58:01;;;;;;;10.60;4.38;;;;;;;12.86;74.89;99175.66;5007650;28;20239;-58
2022/05/16 03:00:27;;;;;;;8.18;4.40;;;;;;;13.02;74.34;99178.44;5007218;28;20068;-57
2022/05/16 03:02:55;;;;;;;9.73;4.45;;;;;;;13.01;74.19;99168.75;4980701;28;20033;-56
2022/05/16 03:05:21;;;;;;;6.30;4.40;;;;;;;13.14;73.58;99171.78;5005161;28;20026;-56
2022/05/16 03:07:46;;;;;;;7.90;4.20;;;;;;;13.24;73.10;99156.78;5006645;28;20112;-57
2022/05/16 03:10:15;;;;;;;9.38;4.55;;;;;;;13.50;72.35;99168.50;5008068;28;20022;-57
2022/05/16 03:12:43;;;;;;;10.30;4.90;;;;;;;13.48;72.52;99160.69;5005203;28;20489;-58
2022/05/16 03:15:09;;;;;;;13.55;5.28;;;;;;;13.49;72.51;99154.22;4987320;28;20380;-57
2022/05/16 03:17:34;;;;;;;7.45;4.60;;;;;;;13.21;74.39;99166.19;5005366;28;20045;-57
2022/05/16 03:20:00;;;;;;;10.13;4.97;;;;;;;13.26;74.51;99160.03;5003678;28;20061;-56
2022/05/16 03:22:26;;;;;;;8.77;5.05;;;;;;;13.06;74.88;99174.19;4985190;28;20057;-57
2022/05/16 03:24:51;;;;;;;11.23;4.63;;;;;;;13.12;76.16;99176.63;5006201;28;20030;-57
2022/05/16 03:27:17;;;;;;;10.40;4.78;;;;;;;13.04;75.24;99171.75;5007561;28;20168;-57
2022/05/16 03:29:42;;;;;;;7.53;4.70;;;;;;;12.91;75.70;99166.81;5006769;28;20034;-57
2022/05/16 03:32:08;;;;;;;9.63;5.03;;;;;;;12.80;76.97;99160.53;5005961;28;20747;-55
2022/05/16 03:34:33;;;;;;;11.25;4.88;;;;;;;12.81;77.01;99162.19;5005880;28;20033;-58
2022/05/16 03:36:59;;;;;;;12.95;5.00;;;;;;;12.82;76.70;99152.22;5006882;28;20037;-56
2022/05/16 03:42:09;;;;;;;10.23;4.63;;;;;;;13.11;76.48;99145.41;5006286;28;20399;-58
2022/05/16 03:44:34;;;;;;;9.18;5.05;;;;;;;12.99;76.29;99146.69;5004795;28;20026;-57
2022/05/16 03:47:00;;;;;;;10.27;4.70;;;;;;;13.21;76.35;99143.84;5004333;28;20057;-56
2022/05/16 03:49:26;;;;;;;8.45;4.68;;;;;;;13.24;75.10;99148.72;5000581;28;20109;-56
2022/05/16 03:51:51;;;;;;;10.73;4.90;;;;;;;13.04;75.64;99144.03;5005780;28;20083;-59
2022/05/16 03:54:17;;;;;;;10.10;5.13;;;;;;;12.70;77.53;99129.03;5005959;28;20057;-58
2022/05/16 03:56:43;;;;;;;10.27;5.00;;;;;;;12.80;76.99;99132.84;5006559;28;20436;-55
2022/05/16 03:59:11;;;;;;;9.52;4.68;;;;;;;12.20;80.63;99135.59;5005656;28;20029;-58
2022/05/16 04:01:37;;;;;;;9.68;5.13;;;;;;;12.86;79.29;99129.13;5003370;28;20083;-56
2022/05/16 04:04:03;;;;;;;11.50;5.50;;;;;;;14.11;73.67;99143.63;4982470;28;20034;-55
2022/05/16 04:06:34;;;;;;;9.05;4.72;;;;;;;14.79;71.27;99136.09;5005728;28;20427;-59
2022/05/16 04:09:00;;;;;;;12.40;4.85;;;;;;;14.07;76.55;99119.09;5006527;28;20030;-54
2022/05/16 04:11:26;;;;;;;14.68;5.85;;;;;;;13.77;77.20;99127.94;5005750;28;20038;-56
2022/05/16 04:13:52;;;;;;;11.13;5.57;;;;;;;13.41;78.84;99135.09;4988304;28;20369;-56
2022/05/16 04:16:17;;;;;;;10.43;5.45;;;;;;;13.17;79.78;99138.97;4968358;28;20543;-56
2022/05/16 04:18:44;;;;;;;11.02;5.75;;;;;;;12.91;78.91;99146.09;5004309;28;20530;-56
2022/05/16 04:21:10;;;;;;;13.43;5.72;;;;;;;12.83;79.40;99160.03;4972301;28;20503;-55
2022/05/16 04:23:36;;;;;;;9.55;6.15;;;;;;;13.03;79.49;99148.59;5005487;28;20026;-58
2022/05/16 04:26:02;;;;;;;10.10;5.47;;;;;;;13.69;77.44;99156.19;5005716;28;20040;-57
2022/05/16 04:28:27;;;;;;;12.60;5.97;;;;;;;13.71;78.17;99153.25;5005796;28;20472;-55
2022/05/16 04:30:53;;;;;;;11.85;5.75;;;;;;;13.57;78.53;99164.47;5004770;28;20322;-55
2022/05/16 04:33:19;;;;;;;12.45;6.25;;;;;;;13.28;80.59;99144.44;5004815;28;20054;-55
2022/05/16 04:35:44;;;;;;;13.93;5.95;;;;;;;13.25;82.33;99139.56;5005330;28;20404;-55
2022/05/16 04:38:10;;;;;;;13.38;5.80;;;;;;;13.37;82.86;99149.06;5004769;28;20116;-56
2022/05/16 04:42:40;;;;;;;10.00;6.18;;;;;;;13.64;82.62;99147.28;5002894;28;20391;-56
2022/05/16 04:43:21;;;;;;;14.07;6.13;;;;;;;13.70;82.15;99140.84;5000365;28;20469;-56
2022/05/16 04:45:47;;;;;;;12.13;6.07;;;;;;;13.83;82.05;99148.44;5005903;28;20290;-56
2022/05/16 04:48:15;;;;;;;10.15;5.68;;;;;;;14.07;81.94;99145.22;5005166;28;20041;-56
2022/05/16 04:50:41;;;;;;;11.50;6.60;;;;;;;14.18;82.15;99142.28;5001086;28;20062;-56
2022/05/16 04:53:06;;;;;;;12.25;6.20;;;;;;;13.69;84.54;99144.59;5002768;28;20455;-56
2022/05/16 04:55:32;;;;;;;14.40;6.63;;;;;;;13.34;87.62;99144.22;4999856;28;20201;-56
2022/05/16 04:57:57;;;;;;;11.75;6.38;;;;;;;13.67;86.79;99144.06;5005211;28;20038;-56
2022/05/16 05:00:23;;;;;;;14.27;6.45;;;;;;;13.59;86.87;99154.25;5004515;28;20112;-56
2022/05/16 05:02:49;;;;;;;10.27;6.32;;;;;;;13.64;86.19;99152.69;5002196;28;20116;-57
2022/05/16 05:05:14;;;;;;;11.68;6.53;;;;;;;13.69;87.68;99163.47;5005441;28;20030;-57
2022/05/16 05:07:40;;;;;;;9.27;6.20;;;;;;;13.90;86.24;99167.81;4997846;28;20495;-56
2022/05/16 05:15:36;;;;;;;11.18;6.30;;;;;;;14.54;84.11;99184.66;5004118;28;20608;-56
2022/05/16 05:18:03;;;;;;;9.02;5.97;;;;;;;14.62;83.75;99190.31;5004097;28;20388;-57
2022/05/16 05:20:28;;;;;;;10.90;6.53;;;;;;;14.83;83.15;99191.13;4989717;28;20022;-57
2022/05/16 05:22:54;;;;;;;10.02;5.50;;;;;;;14.83;81.87;99183.03;5000312;28;20053;-57
2022/05/16 05:25:20;;;;;;;10.63;5.53;;;;;;;14.98;80.26;99184.13;5008591;28;20083;-57
2022/05/16 05:27:46;;;;;;;11.98;6.53;;;;;;;14.75;82.65;99177.38;5009099;28;20045;-57
2022/05/16 05:30:14;;;;;;;14.15;6.00;;;;;;;15.16;81.10;99188.94;5008371;28;20028;-57
2022/05/16 05:32:40;;;;;;;9.75;5.88;;;;;;;15.34;80.36;99194.81;5002443;28;20026;-56
2022/05/16 05:35:06;;;;;;;11.05;5.60;;;;;;;15.31;79.95;99196.97;5007473;28;20155;-56
2022/05/16 05:37:32;;;;;;;11.70;6.30;;;;;;;14.98;81.35;99203.00;4983912;28;20168;-57
2022/05/16 05:40:01;;;;;;;10.02;5.72;;;;;;;14.93;80.50;99209.22;4994604;28;20548;-57
2022/05/16 05:42:29;;;;;;;10.35;6.18;;;;;;;15.07;81.24;99218.34;4995444;28;20031;-57
2022/05/16 05:44:55;;;;;;;9.05;6.07;;;;;;;15.28;80.66;99221.03;5000587;28;20041;-57
2022/05/16 05:47:21;;;;;;;10.88;6.18;;;;;;;15.36;80.51;99231.28;4992386;28;20230;-56
2022/05/16 05:49:46;;;;;;;13.38;6.10;;;;;;;15.41;80.28;99227.75;4997349;28;20034;-57
2022/05/16 05:52:12;;;;;;;11.23;5.88;;;;;;;15.45;79.53;99229.63;4995738;28;20120;-57
2022/05/16 05:54:37;;;;;;;11.95;6.40;;;;;;;15.33;78.78;99242.63;4995793;28;20026;-57
2022/05/16 05:57:06;;;;;;;14.95;6.70;;;;;;;15.19;78.77;99253.16;5001710;28;20092;-57
2022/05/16 05:59:31;;;;;;;12.98;6.00;;;;;;;15.20;78.56;99253.97;4984749;28;20117;-57
2022/05/16 06:01:57;;;;;;;11.43;6.57;;;;;;;15.16;77.38;99248.31;4992035;28;20105;-57
2022/05/16 06:04:23;;;;;;;13.25;6.40;;;;;;;15.08;77.56;99252.38;4987502;28;20022;-56
2022/05/16 06:06:48;;;;;;;16.85;6.97;;;;;;;15.15;75.89;99256.69;5003436;28;20146;-57
2022/05/16 06:09:14;;;;;;;11.40;5.82;;;;;;;15.14;75.07;99261.28;5007810;28;20494;-57
2022/05/16 06:11:39;;;;;;;15.05;6.05;;;;;;;15.20;73.97;99262.06;5003137;28;20113;-57
2022/05/16 06:14:05;;;;;;;11.77;5.80;;;;;;;15.38;73.52;99275.03;5003820;28;20444;-57
2022/05/16 06:16:30;;;;;;;14.02;6.18;;;;;;;15.27;73.35;99271.50;5005220;28;20021;-57
2022/05/16 06:18:56;;;;;;;10.18;6.25;;;;;;;14.72;75.41;99269.63;5000210;28;20239;-57
2022/05/16 06:21:23;;;;;;;9.50;5.53;;;;;;;14.97;76.07;99266.13;5001923;28;20022;-57
2022/05/16 06:23:48;;;;;;;13.90;6.20;;;;;;;14.91;76.18;99261.84;5002222;28;20381;-57
2022/05/16 06:26:14;;;;;;;15.70;6.10;;;;;;;14.92;75.67;99264.25;5003818;28;20037;-57
2022/05/16 06:28:39;;;;;;;20.63;5.32;;;;;;;14.62;73.56;99265.84;5007744;28;20035;-57
2022/05/16 06:31:05;;;;;;;14.50;5.70;;;;;;;15.10;72.25;99263.72;5005572;28;20104;-57
2022/05/16 06:33:31;;;;;;;11.30;5.35;;;;;;;15.68;70.38;99260.63;5007561;28;20175;-56
2022/05/16 06:35:57;;;;;;;11.82;5.35;;;;;;;15.88;70.06;99267.88;5007865;28;20488;-57
2022/05/16 06:38:30;;;;;;;10.18;5.50;;;;;;;15.91;69.89;99269.22;5006349;28;20053;-57
2022/05/16 06:40:56;;;;;;;12.60;5.82;;;;;;;16.12;71.21;99269.94;4988920;28;20026;-57
2022/05/16 06:43:23;;;;;;;12.82;5.32;;;;;;;16.58;69.93;99261.56;5000806;28;20026;-57
2022/05/16 06:45:49;;;;;;;11.93;5.50;;;;;;;16.94;69.58;99269.44;4984342;28;20050;-57
2022/05/16 06:48:15;;;;;;;10.93;5.43;;;;;;;17.49;67.78;99271.91;5006260;28;20034;-57
2022/05/16 06:50:41;;;;;;;11.23;5.00;;;;;;;17.40;67.99;99277.97;5000596;28;20567;-57
2022/05/16 06:53:11;;;;;;;9.57;5.20;;;;;;;17.51;66.75;99273.25;5005691;28;20036;-57
2022/05/16 06:55:40;;;;;;;18.88;5.85;;;;;;;17.69;67.27;99275.22;5003034;28;20030;-58
2022/05/16 06:58:05;;;;;;;29.95;6.40;;;;;;;18.57;64.47;99283.09;5002573;28;20033;-57
2022/05/16 07:00:31;;;;;;;12.43;5.82;;;;;;;18.74;62.91;99267.06;5005702;28;20029;-58
2022/05/16 07:03:00;;;;;;;15.10;5.20;;;;;;;18.93;61.86;99277.94;5005391;28;20018;-57
2022/05/16 07:05:25;;;;;;;19.25;5.75;;;;;;;19.24;62.31;99277.41;5005953;28;20020;-57
2022/05/16 07:07:51;;;;;;;13.95;5.25;;;;;;;19.97;60.25;99269.56;5007139;28;20042;-58
2022/05/16 07:10:17;;;;;;;12.82;5.10;;;;;;;20.23;59.74;99267.09;5005152;28;20303;-57
2022/05/16 07:12:42;;;;;;;17.65;5.82;;;;;;;21.71;56.11;99274.41;5006929;28;20030;-57
2022/05/16 07:15:11;;;;;;;9.30;5.18;;;;;;;24.20;49.89;99282.22;5003723;28;20052;-58
2022/05/16 07:17:37;;;;;;;8.88;4.30;;;;;;;25.38;46.01;99277.56;5004477;28;20034;-56
2022/05/16 07:20:03;;;;;;;9.18;4.45;;;;;;;24.69;48.88;99287.25;5004327;28;20449;-57
2022/05/16 07:22:29;;;;;;;6.70;4.00;;;;;;;26.66;44.17;99278.13;5006640;28;20030;-56
2022/05/16 07:24:56;;;;;;;11.88;4.32;;;;;;;27.67;42.35;99283.56;5006056;28;20040;-57
2022/05/16 07:30:07;;;;;;;9.77;3.60;;;;;;;28.02;40.27;99289.16;5002930;28;20036;-56
2022/05/16 07:32:37;;;;;;;8.30;3.80;;;;;;;29.15;39.00;99280.16;5006056;28;20121;-57
2022/05/16 07:35:04;;;;;;;11.65;3.60;;;;;;;29.17;38.32;99286.09;4988598;28;20041;-57
2022/05/16 07:37:29;;;;;;;9.60;3.47;;;;;;;29.34;36.94;99291.16;5003273;28;20057;-57
2022/05/16 07:39:55;;;;;;;9.48;3.30;;;;;;;27.62;39.81;99286.59;5002948;28;20026;-57
2022/05/16 07:42:21;;;;;;;12.05;3.55;;;;;;;28.58;38.71;99293.56;5005102;28;20045;-57
2022/05/16 07:44:48;;;;;;;6.55;3.05;;;;;;;28.11;39.12;99291.72;5004667;28;20063;-56
2022/05/16 07:47:14;;;;;;;6.80;3.15;;;;;;;27.94;39.29;99298.41;4999348;28;20549;-56
2022/05/16 07:49:40;;;;;;;9.82;3.50;;;;;;;24.59;44.99;99293.94;5006774;28;20362;-57
2022/05/16 07:52:05;;;;;;;9.02;3.75;;;;;;;26.98;41.50;99288.41;5004257;28;20547;-57
2022/05/16 07:54:31;;;;;;;11.10;3.30;;;;;;;27.73;39.76;99288.47;5002117;28;20095;-56
2022/05/16 07:56:56;;;;;;;7.07;3.20;;;;;;;28.38;38.25;99295.47;4989165;28;20027;-57
2022/05/16 07:59:22;;;;;;;7.78;3.20;;;;;;;25.03;44.66;99288.84;4991271;28;20229;-57
2022/05/16 08:01:48;;;;;;;8.23;3.40;;;;;;;26.71;42.67;99292.75;4993870;28;20404;-56
2022/05/16 08:04:14;;;;;;;8.95;3.67;;;;;;;27.55;42.19;99289.94;4996016;28;20022;-56
2022/05/16 08:06:40;;;;;;;9.05;3.55;;;;;;;27.38;41.24;99287.53;5003564;28;20057;-56
2022/05/16 08:11:49;;;;;;;6.72;3.65;;;;;;;24.40;49.59;99288.88;4998675;28;20057;-56
2022/05/16 08:14:15;;;;;;;6.65;3.50;;;;;;;27.11;45.07;99281.72;5005372;28;20569;-56
2022/05/16 08:16:40;;;;;;;6.57;3.17;;;;;;;24.44;48.48;99295.28;5003283;28;20034;-55
2022/05/16 08:19:06;;;;;;;7.32;3.75;;;;;;;25.60;45.92;99293.59;5005358;28;20484;-56
2022/05/16 08:21:31;;;;;;;10.90;3.78;;;;;;;26.90;44.10;99301.94;5001642;28;20516;-56
2022/05/16 08:23:57;;;;;;;9.13;3.72;;;;;;;24.25;50.23;99297.69;5003673;28;20097;-56
2022/05/16 08:26:23;;;;;;;9.52;3.70;;;;;;;24.49;49.67;99297.06;5003213;28;20080;-56
2022/05/16 08:28:49;;;;;;;7.63;3.83;;;;;;;24.16;49.16;99289.50;5003281;28;20026;-56
2022/05/16 08:31:14;;;;;;;9.65;4.00;;;;;;;23.59;52.70;99284.47;4987121;28;20068;-56
2022/05/16 08:33:40;;;;;;;8.80;3.92;;;;;;;23.55;52.30;99286.25;4987009;28;20029;-55
2022/05/16 08:41:44;;;;;;;8.35;3.83;;;;;;;22.66;56.42;99283.13;5000334;28;20036;-56
2022/05/16 08:44:19;;;;;;;6.63;4.03;;;;;;;26.88;46.41;99287.78;4986803;28;20037;-56
2022/05/16 08:47:10;;;;;;;7.45;4.05;;;;;;;27.86;44.37;99296.66;4956525;28;20049;-57
2022/05/16 08:49:42;;;;;;;8.10;3.95;;;;;;;25.09;48.96;99287.53;4994694;28;20053;-56
2022/05/16 08:52:21;;;;;;;7.93;3.88;;;;;;;25.40;49.26;99289.00;4971834;28;20032;-56
2022/05/16 08:55:18;;;;;;;8.88;3.97;;;;;;;24.55;50.97;99290.25;4999979;28;20033;-55
2022/05/16 08:57:47;;;;;;;9.38;4.32;;;;;;;24.47;50.77;99288.38;5001255;28;20038;-56
2022/05/16 09:00:16;;;;;;;;;;;;;;;24.16;51.46;99284.03;4985277;28;20023;-56
2022/05/16 09:02:42;;;;;;;10.38;4.53;;;;;;;23.66;53.70;99284.72;5001419;28;19928;-55
2022/05/16 09:05:37;;;;;;;7.75;4.30;;;;;;;23.18;54.65;99278.44;4984605;28;20485;-57
2022/05/16 09:08:04;;;;;;;9.15;4.18;;;;;;;24.90;50.69;99281.72;4982433;28;20070;-56
2022/05/16 09:10:56;;;;;;;8.50;4.30;;;;;;;24.36;52.42;99292.59;4985986;28;20096;-56
2022/05/16 09:13:47;;;;;;;6.50;3.70;;;;;;;25.46;49.16;99286.81;5003958;28;20117;-55
2022/05/16 09:16:23;;;;;;;6.25;3.85;;;;;;;24.67;50.11;99281.28;5000078;28;20031;-56
2022/05/16 09:19:07;;;;;;;8.18;4.20;;;;;;;23.62;53.88;99287.34;4984625;28;20031;-56
2022/05/16 09:22:13;;;;;;;8.65;4.35;;;;;;;24.30;51.49;99289.25;5000567;28;20034;-56
2022/05/16 09:24:50;;;;;;;12.55;4.80;;;;;;;24.25;53.29;99281.25;4928612;29;20043;-56
2022/05/16 09:30:05;;;;;;;9.02;4.60;;;;;;;24.35;53.08;99282.78;4968589;28;20048;-54
2022/05/16 09:32:40;;;;;;;10.82;4.70;;;;;;;26.01;49.73;99278.09;5002821;28;20025;-56
2022/05/16 09:35:30;;;;;;;13.32;4.50;;;;;;;26.10;48.66;99271.69;5003677;28;20451;-57
2022/05/16 09:37:56;;;;;;;12.82;4.80;;;;;;;25.63;50.19;99269.38;4987096;28;20122;-57
2022/05/16 09:40:25;;;;;;;8.73;4.32;;;;;;;25.99;48.68;99268.59;4980692;28;20022;-57
2022/05/16 09:42:50;;;;;;;16.88;4.65;;;;;;;25.60;50.50;99263.41;5001394;28;20375;-56
2022/05/16 09:45:23;;;;;;;6.70;4.05;;;;;;;25.96;50.52;99258.28;4969606;28;20384;-56
2022/05/16 09:47:49;;;;;;;6.70;4.10;;;;;;;28.11;45.59;99262.22;4978702;28;20050;-56
2022/05/16 09:50:20;;;;;;;8.30;3.70;;;;;;;28.85;43.08;99263.38;4978672;28;20050;-56
2022/05/16 09:53:09;;;;;;;8.77;3.70;;;;;;;28.97;42.58;99261.25;4979745;28;20030;-57
2022/05/16 09:55:52;;;;;;;6.95;3.25;;;;;;;26.76;45.76;99263.06;4980807;28;20408;-55
2022/05/16 09:58:45;;;;;;;10.18;3.78;;;;;;;25.74;49.65;99262.28;4984351;28;20030;-56
2022/05/16 10:01:11;;;;;;;7.75;3.90;;;;;;;26.95;47.85;99253.38;4974740;28;20026;-56
2022/05/16 10:03:42;;;;;;;11.05;3.53;;;;;;;26.93;48.62;99266.66;4952622;28;20062;-56
2022/05/16 10:06:11;;;;;;;8.68;3.65;;;;;;;26.13;48.71;99262.75;4984259;28;20493;-56
2022/05/16 10:08:39;;;;;;;9.35;3.97;;;;;;;26.75;47.98;99271.66;4986667;28;20057;-56
2022/05/16 10:11:11;;;;;;;9.15;4.13;;;;;;;26.49;49.15;99267.38;5001004;28;20179;-56
2022/05/16 10:13:37;;;;;;;5.35;3.50;;;;;;;25.82;50.69;99266.84;4983410;28;20026;-56
2022/05/16 10:16:04;;;;;;;12.20;3.90;;;;;;;25.50;50.36;99266.59;4976115;28;20029;-56
2022/05/16 10:18:31;;;;;;;7.45;3.67;;;;;;;26.43;47.50;99272.31;4965298;28;20042;-57
2022/05/16 10:21:03;;;;;;;9.95;3.72;;;;;;;26.30;48.26;99276.22;4970096;28;20070;-57
2022/05/16 10:23:32;;;;;;;8.40;3.50;;;;;;;26.44;46.97;99276.66;4982192;28;20084;-56
2022/05/16 10:26:01;;;;;;;6.20;3.40;;;;;;;26.42;46.52;99269.91;4983373;28;20392;-56
2022/05/16 10:28:33;;;;;;;12.35;3.50;;;;;;;27.25;44.53;99278.56;4986783;28;20172;-56
2022/05/16 10:33:44;;;;;;;8.35;3.72;;;;;;;27.82;43.72;99295.75;4982877;28;20118;-56
2022/05/16 10:36:18;;;;;;;8.52;3.55;;;;;;;27.31;45.26;99272.44;4985300;28;20078;-55
2022/05/16 10:39:07;;;;;;;10.40;3.47;;;;;;;28.47;44.28;99274.03;4971962;28;20499;-56
2022/05/16 10:41:41;;;;;;;7.30;3.55;;;;;;;27.79;43.66;99279.94;4988506;28;20350;-56
2022/05/16 10:44:26;;;;;;;7.13;3.33;;;;;;;28.67;42.47;99283.13;4986685;28;20080;-56
2022/05/16 10:47:30;;;;;;;9.40;4.20;;;;;;;27.94;44.54;99282.69;4995591;28;20476;-56
2022/05/16 10:49:58;;;;;;;7.95;3.78;;;;;;;27.53;44.52;99278.50;5007371;28;20057;-56
2022/05/16 10:52:50;;;;;;;7.93;3.63;;;;;;;27.67;44.74;99278.06;4989289;28;20018;-57
2022/05/16 10:55:16;;;;;;;9.45;3.55;;;;;;;27.31;44.33;99275.19;5005936;28;20046;-55
2022/05/16 10:57:42;;;;;;;9.43;3.72;;;;;;;27.61;44.10;99283.03;5003410;28;20381;-56
2022/05/16 11:00:10;;;;;;;12.45;4.20;;;;;;;27.93;43.59;99280.28;5004458;28;20116;-57
2022/05/16 11:02:45;;;;;;;8.93;3.60;;;;;;;28.55;43.65;99273.03;5003433;28;20025;-56
2022/05/16 11:05:20;;;;;;;11.07;4.07;;;;;;;28.21;44.05;99265.56;4988391;28;20672;-60
2022/05/16 11:08:13;;;;;;;12.80;4.50;;;;;;;29.14;42.96;99267.53;5005664;28;20038;-56
2022/05/16 11:10:55;;;;;;;7.35;3.90;;;;;;;28.21;44.13;99254.53;5000950;28;20440;-55
2022/05/16 11:13:36;;;;;;;13.77;3.80;;;;;;;28.51;43.81;99255.63;4976690;28;20580;-56
2022/05/16 11:16:11;;;;;;;12.02;4.60;;;;;;;28.81;42.88;99263.31;4992793;28;20034;-56
2022/05/16 11:18:56;;;;;;;10.18;4.00;;;;;;;29.01;43.02;99261.34;4986010;28;20022;-56
2022/05/16 11:21:40;;;;;;;14.10;4.43;;;;;;;29.39;42.03;99259.69;5004530;28;20076;-56
2022/05/16 11:24:47;;;;;;;10.48;4.38;;;;;;;29.23;41.53;99262.53;5003311;28;20223;-56
2022/05/16 11:27:33;;;;;;;14.05;4.40;;;;;;;28.21;44.51;99246.25;4944053;28;20035;-56
2022/05/16 11:29:58;;;;;;;12.95;4.03;;;;;;;27.48;45.73;99253.97;4943768;28;20367;-56
2022/05/16 11:32:30;;;;;;;16.48;4.60;;;;;;;28.02;45.07;99252.56;4981463;28;20056;-56
2022/05/16 11:35:26;;;;;;;10.32;3.88;;;;;;;27.90;45.56;99261.72;5004488;28;20025;-56
2022/05/16 11:38:18;;;;;;;9.88;4.18;;;;;;;28.20;43.86;99241.94;5003456;28;20040;-56
2022/05/16 11:40:46;;;;;;;10.07;4.25;;;;;;;27.42;45.63;99250.69;5000481;28;20437;-56
2022/05/16 11:43:24;;;;;;;10.82;3.85;;;;;;;28.25;43.55;99230.63;4987524;28;20496;-56
2022/05/16 11:46:07;;;;;;;17.88;4.10;;;;;;;28.16;43.72;99245.41;4982796;28;20491;-56
2022/05/16 11:48:39;;;;;;;11.77;4.00;;;;;;;28.66;44.48;99247.66;4986057;28;20034;-56
2022/05/16 11:51:17;;;;;;;11.65;3.83;;;;;;;28.65;42.18;99235.81;4988248;28;20033;-56
2022/05/16 11:53:48;;;;;;;12.90;3.90;;;;;;;28.65;42.11;99257.06;5005821;28;20117;-57
2022/05/16 12:02:11;;;;;;;10.48;4.07;;;;;;;27.83;44.61;99258.78;4989238;28;20068;-56
2022/05/16 12:04:40;;;;;;;10.18;3.90;;;;;;;28.14;43.20;99269.75;5004912;28;20033;-56
2022/05/16 12:07:05;;;;;;;11.05;4.00;;;;;;;28.51;43.13;99271.38;4972059;28;20674;-56
2022/05/16 12:09:32;;;;;;;12.05;3.92;;;;;;;28.86;42.23;99276.81;4959054;28;20128;-56
2022/05/16 12:12:04;;;;;;;11.45;4.28;;;;;;;28.55;43.05;99264.75;5005345;28;20045;-55
2022/05/16 12:14:40;;;;;;;10.18;4.20;;;;;;;28.37;43.67;99271.84;5004142;28;20691;-55